Time;durP1;ratioP1;P1;durP2;ratioP2;P2;SDS_P1;SDS_P2;PMS_P1;PMS_P2;Temp;Humidity;BMP_temperature;BMP_pressure;BME280_temperature;BME280_humidity;BME280_pressure;Samples;Min_cycle;Max_cycle;Signal;HPM_P1;HPM_P2
2023/07/07 00:07:45;;;;;;;12.4;5.7;;;;;;;12.62;85.64;;;;;
2023/07/07 00:18:44;;;;;;;12.4;5.7;;;;;;;12.41;85.93;;;;;
2023/07/07 00:28:44;;;;;;;9.6;4.2;;;;;;;12.27;86.46;;;;;
2023/07/07 00:38:45;;;;;;;9.6;4.2;;;;;;;12.21;87.54;;;;;
2023/07/07 00:49:45;;;;;;;9.6;4.2;;;;;;;12.16;87.22;;;;;
2023/07/07 00:59:45;;;;;;;7.9;3.8;;;;;;;12.45;87.97;;;;;
2023/07/07 01:10:45;;;;;;;7.9;3.8;;;;;;;12.5;87.38;;;;;
2023/07/07 01:21:45;;;;;;;7.9;3.8;;;;;;;12.53;86.85;;;;;
2023/07/07 01:32:45;;;;;;;8;4.4;;;;;;;12.43;86.15;;;;;
2023/07/07 01:42:45;;;;;;;8;4.4;;;;;;;12.31;85.83;;;;;
2023/07/07 01:53:45;;;;;;;8;4.4;;;;;;;12.15;85.84;;;;;
2023/07/07 02:04:45;;;;;;;7.7;4.3;;;;;;;12.05;85.54;;;;;
2023/07/07 02:14:45;;;;;;;7.7;4.3;;;;;;;11.85;85.69;;;;;
2023/07/07 02:25:45;;;;;;;7.7;4.3;;;;;;;11.65;86;;;;;
2023/07/07 02:35:48;;;;;;;7.7;3.3;;;;;;;11.5;86.14;;;;;
2023/07/07 02:45:45;;;;;;;7.7;3.3;;;;;;;11.53;88.31;;;;;
2023/07/07 02:55:45;;;;;;;7.7;3.3;;;;;;;11.81;90.49;;;;;
2023/07/07 03:06:45;;;;;;;9.4;4.1;;;;;;;12.05;89.3;;;;;
2023/07/07 03:17:45;;;;;;;9.4;4.1;;;;;;;12.19;88.38;;;;;
2023/07/07 03:27:45;;;;;;;7.2;4.4;;;;;;;12.23;88.18;;;;;
2023/07/07 03:37:45;;;;;;;7.2;4.4;;;;;;;12.48;87.78;;;;;
2023/07/07 03:47:45;;;;;;;7.2;4.4;;;;;;;12.58;88.09;;;;;
2023/07/07 03:58:45;;;;;;;7;4.1;;;;;;;12.96;87.64;;;;;
2023/07/07 04:08:45;;;;;;;7;4.1;;;;;;;13.24;87.4;;;;;
2023/07/07 04:18:45;;;;;;;7;4.1;;;;;;;13.48;86.54;;;;;
2023/07/07 04:28:45;;;;;;;9.7;6.1;;;;;;;13.8;86.39;;;;;
2023/07/07 04:39:45;;;;;;;9.7;6.1;;;;;;;14.26;85.66;;;;;
2023/07/07 04:49:45;;;;;;;9.7;6.1;;;;;;;14.63;84.72;;;;;
2023/07/07 04:59:45;;;;;;;9.4;6.7;;;;;;;15.23;82.99;;;;;
2023/07/07 05:10:46;;;;;;;9.4;6.7;;;;;;;15.81;80.87;;;;;
2023/07/07 05:20:45;;;;;;;9.4;6.7;;;;;;;16.11;79.23;;;;;
2023/07/07 05:30:45;;;;;;;9.4;5.8;;;;;;;16.64;78.21;;;;;
2023/07/07 05:41:45;;;;;;;9.4;5.8;;;;;;;16.98;76.3;;;;;
2023/07/07 05:51:45;;;;;;;9.4;5.8;;;;;;;17.45;75.49;;;;;
2023/07/07 06:01:45;;;;;;;10.9;7.3;;;;;;;17.77;73.97;;;;;
2023/07/07 06:11:45;;;;;;;10.9;7.3;;;;;;;18.05;74.97;;;;;
2023/07/07 06:21:45;;;;;;;10.9;7.3;;;;;;;18.38;75.71;;;;;
2023/07/07 06:32:45;;;;;;;15.9;10.5;;;;;;;18.89;74.94;;;;;
2023/07/07 06:42:45;;;;;;;15.9;10.5;;;;;;;19.19;73.51;;;;;
2023/07/07 06:52:45;;;;;;;15.9;10.5;;;;;;;19.63;72.83;;;;;
2023/07/07 07:03:45;;;;;;;13.5;9.6;;;;;;;20.18;68.15;;;;;
2023/07/07 07:13:45;;;;;;;13.5;9.6;;;;;;;20.17;64.59;;;;;
2023/07/07 07:23:45;;;;;;;13.5;9.6;;;;;;;20.49;60.32;;;;;
2023/07/07 07:34:45;;;;;;;14.1;8.5;;;;;;;20.99;60.65;;;;;
2023/07/07 07:44:45;;;;;;;14.1;8.5;;;;;;;21.32;59.44;;;;;
2023/07/07 07:55:45;;;;;;;14.1;8.5;;;;;;;21.61;56.63;;;;;
2023/07/07 08:05:45;;;;;;;12.7;7;;;;;;;22.07;57.31;;;;;
2023/07/07 08:16:45;;;;;;;12.7;7;;;;;;;22.15;52.73;;;;;
2023/07/07 08:26:46;;;;;;;8.4;5;;;;;;;22.46;52.65;;;;;
2023/07/07 08:37:45;;;;;;;8.4;5;;;;;;;22.7;50.08;;;;;
2023/07/07 08:48:45;;;;;;;8.4;5;;;;;;;23.11;48.39;;;;;
2023/07/07 08:59:45;;;;;;;5.6;3.5;;;;;;;23.41;46.2;;;;;
2023/07/07 09:10:45;;;;;;;5.6;3.5;;;;;;;24.23;43.01;;;;;
2023/07/07 09:21:45;;;;;;;5.6;3.5;;;;;;;24.92;44.1;;;;;
2023/07/07 09:32:46;;;;;;;4.9;3.1;;;;;;;25.84;42.3;;;;;
2023/07/07 09:42:45;;;;;;;4.9;3.1;;;;;;;25.77;41.65;;;;;
2023/07/07 09:52:45;;;;;;;4.9;3.1;;;;;;;25.64;42.95;;;;;
2023/07/07 10:03:45;;;;;;;7.8;3.4;;;;;;;25.33;40.41;;;;;
2023/07/07 10:13:45;;;;;;;7.8;3.4;;;;;;;24.78;42.11;;;;;
2023/07/07 10:23:45;;;;;;;7.8;3.4;;;;;;;24.71;39.47;;;;;
2023/07/07 10:33:45;;;;;;;5.4;2.1;;;;;;;25.13;39.85;;;;;
2023/07/07 10:43:45;;;;;;;5.4;2.1;;;;;;;25.22;39.11;;;;;
2023/07/07 10:54:45;;;;;;;5.4;2.1;;;;;;;25.77;38.73;;;;;
2023/07/07 11:04:45;;;;;;;3.9;1.8;;;;;;;26.06;35.43;;;;;
2023/07/07 11:15:45;;;;;;;3.9;1.8;;;;;;;26.26;36.36;;;;;
2023/07/07 11:25:46;;;;;;;3.9;1.8;;;;;;;25.97;35.72;;;;;
2023/07/07 11:35:45;;;;;;;6.1;2.1;;;;;;;25.83;36.91;;;;;
2023/07/07 11:46:45;;;;;;;6.1;2.1;;;;;;;25.74;37.6;;;;;
2023/07/07 11:57:45;;;;;;;4.3;1.9;;;;;;;26.02;35.6;;;;;
2023/07/07 12:07:45;;;;;;;4.3;1.9;;;;;;;26.79;34.93;;;;;
2023/07/07 12:17:46;;;;;;;4.3;1.9;;;;;;;25.85;36.77;;;;;
2023/07/07 12:27:45;;;;;;;4.3;1.9;;;;;;;25.99;38.14;;;;;
2023/07/07 12:38:45;;;;;;;4.3;1.9;;;;;;;26.8;35.47;;;;;
2023/07/07 12:49:45;;;;;;;4.3;1.9;;;;;;;26.99;34.84;;;;;
2023/07/07 12:59:45;;;;;;;5.1;2.1;;;;;;;26.49;34.89;;;;;
2023/07/07 13:09:45;;;;;;;5.1;2.1;;;;;;;27.44;33.97;;;;;
2023/07/07 13:20:45;;;;;;;5.1;2.1;;;;;;;26.79;33.25;;;;;
2023/07/07 13:30:45;;;;;;;6.1;2.1;;;;;;;26.3;35.08;;;;;
2023/07/07 13:40:45;;;;;;;6.1;2.1;;;;;;;27.35;33.21;;;;;
2023/07/07 13:51:52;;;;;;;6.1;2.1;;;;;;;26.34;34.96;;;;;
2023/07/07 14:01:45;;;;;;;3.7;1.8;;;;;;;26.39;34.27;;;;;
2023/07/07 14:12:45;;;;;;;3.7;1.8;;;;;;;27.03;33.26;;;;;
2023/07/07 14:22:45;;;;;;;3.7;1.8;;;;;;;27.45;31.54;;;;;
2023/07/07 14:33:45;;;;;;;4.5;2;;;;;;;27.17;33.71;;;;;
2023/07/07 14:44:45;;;;;;;4.5;2;;;;;;;28.42;32.18;;;;;
2023/07/07 14:55:45;;;;;;;4.5;2;;;;;;;28.92;32.53;;;;;
2023/07/07 15:06:46;;;;;;;4.9;1.8;;;;;;;28.08;30.83;;;;;
2023/07/07 15:16:45;;;;;;;4.9;1.8;;;;;;;29.97;28.36;;;;;
2023/07/07 15:26:46;;;;;;;4.9;1.8;;;;;;;32.16;26.19;;;;;
2023/07/07 15:36:45;;;;;;;7.9;2.5;;;;;;;33.67;24.59;;;;;
2023/07/07 15:47:45;;;;;;;7.9;2.5;;;;;;;32.39;25.49;;;;;
2023/07/07 15:57:45;;;;;;;3.5;1.6;;;;;;;30.08;28.22;;;;;
2023/07/07 16:07:45;;;;;;;3.5;1.6;;;;;;;32.08;26.31;;;;;
2023/07/07 16:17:45;;;;;;;3.5;1.6;;;;;;;33.4;25.03;;;;;
2023/07/07 16:27:45;;;;;;;2.9;1.6;;;;;;;33.23;24.27;;;;;
2023/07/07 16:37:45;;;;;;;2.9;1.6;;;;;;;34.49;23.39;;;;;
2023/07/07 16:48:45;;;;;;;2.9;1.6;;;;;;;35.51;23.23;;;;;
2023/07/07 16:59:45;;;;;;;3.8;1.7;;;;;;;36.47;21.57;;;;;
2023/07/07 17:09:45;;;;;;;3.8;1.7;;;;;;;35.24;21.99;;;;;
2023/07/07 17:19:45;;;;;;;3.8;1.7;;;;;;;31.37;26.36;;;;;
2023/07/07 17:30:45;;;;;;;4.4;2.5;;;;;;;28.87;30.47;;;;;
2023/07/07 17:40:45;;;;;;;4.4;2.5;;;;;;;29.79;29.9;;;;;
2023/07/07 17:50:47;;;;;;;4.4;2.5;;;;;;;32.01;27.49;;;;;
2023/07/07 18:01:45;;;;;;;6.3;2.5;;;;;;;32.62;25.84;;;;;
2023/07/07 18:11:45;;;;;;;6.3;2.5;;;;;;;30.36;28.13;;;;;
2023/07/07 18:21:45;;;;;;;6.3;2.5;;;;;;;27.9;32.8;;;;;
2023/07/07 18:31:45;;;;;;;14.9;6.8;;;;;;;25.68;38.32;;;;;
2023/07/07 18:42:45;;;;;;;14.9;6.8;;;;;;;23.84;41.63;;;;;
2023/07/07 18:52:45;;;;;;;14.9;6.8;;;;;;;22.56;46.08;;;;;
2023/07/07 19:03:46;;;;;;;22.4;15.1;;;;;;;21.37;49.18;;;;;
2023/07/07 19:14:45;;;;;;;22.4;15.1;;;;;;;20.45;53.5;;;;;
2023/07/07 19:24:45;;;;;;;22.4;15.1;;;;;;;19.6;56.98;;;;;
2023/07/07 19:34:45;;;;;;;8.4;5.8;;;;;;;18.71;61;;;;;
2023/07/07 19:44:45;;;;;;;8.4;5.8;;;;;;;18.16;62.89;;;;;
2023/07/07 19:54:45;;;;;;;8.4;5.8;;;;;;;17.63;65.53;;;;;
2023/07/07 20:05:45;;;;;;;11.1;7.3;;;;;;;17.35;62.45;;;;;
2023/07/07 20:15:45;;;;;;;11.1;7.3;;;;;;;16.98;64.94;;;;;
2023/07/07 20:25:45;;;;;;;11.1;7.3;;;;;;;16.74;67.15;;;;;
2023/07/07 20:35:47;;;;;;;10.3;5.2;;;;;;;16.45;67.58;;;;;
2023/07/07 20:46:45;;;;;;;10.3;5.2;;;;;;;16.04;66.21;;;;;
2023/07/07 20:56:45;;;;;;;10.3;5.2;;;;;;;15.77;67.41;;;;;
2023/07/07 21:07:45;;;;;;;8.2;5.2;;;;;;;15.52;68.14;;;;;
2023/07/07 21:17:45;;;;;;;8.2;5.2;;;;;;;15.33;69.13;;;;;
2023/07/07 21:27:45;;;;;;;8.2;5.2;;;;;;;15.23;70.46;;;;;
2023/07/07 21:37:45;;;;;;;6.8;4;;;;;;;15;69.42;;;;;
2023/07/07 21:48:45;;;;;;;6.8;4;;;;;;;14.72;72.38;;;;;
2023/07/07 21:58:45;;;;;;;8.7;4.3;;;;;;;14.48;70.57;;;;;
2023/07/07 22:09:45;;;;;;;8.7;4.3;;;;;;;14.29;72.33;;;;;
2023/07/07 22:19:45;;;;;;;8.7;4.3;;;;;;;14.09;72.23;;;;;
2023/07/07 22:29:45;;;;;;;6.8;4.4;;;;;;;13.89;72.81;;;;;
2023/07/07 22:39:45;;;;;;;6.8;4.4;;;;;;;13.76;76;;;;;
2023/07/07 22:50:45;;;;;;;6.8;4.4;;;;;;;13.74;78.5;;;;;
2023/07/07 23:00:45;;;;;;;9.7;5.8;;;;;;;13.65;77.8;;;;;
2023/07/07 23:10:45;;;;;;;9.7;5.8;;;;;;;13.49;77.26;;;;;
2023/07/07 23:21:45;;;;;;;9.7;5.8;;;;;;;13.31;77.37;;;;;
2023/07/07 23:32:45;;;;;;;8.9;6.3;;;;;;;13.12;77.44;;;;;
2023/07/07 23:42:45;;;;;;;8.9;6.3;;;;;;;12.93;79.05;;;;;
2023/07/07 23:53:45;;;;;;;8.9;6.3;;;;;;;12.76;80.67;;;;;
